sensor_id;sensor_type;location;lat;lon;timestamp;pressure;altitude;pressure_sealevel;temperature;humidity
75063;BME280;63981;51.052;13.754;2023-01-19T00:02:21;99244.69;;;-2.40;89.68
75063;BME280;63981;51.052;13.754;2023-01-19T00:04:47;99258.44;;;-2.40;90.82
75063;BME280;63981;51.052;13.754;2023-01-19T00:07:12;99255.69;;;-2.33;90.58
75063;BME280;63981;51.052;13.754;2023-01-19T00:09:38;99264.41;;;-2.38;89.88
75063;BME280;63981;51.052;13.754;2023-01-19T00:12:10;99269.31;;;-2.58;90.62
75063;BME280;63981;51.052;13.754;2023-01-19T00:14:36;99257.44;;;-2.65;90.59
75063;BME280;63981;51.052;13.754;2023-01-19T00:17:02;99260.78;;;-2.60;90.63
75063;BME280;63981;51.052;13.754;2023-01-19T00:19:28;99210.50;;;-3.07;90.07
75063;BME280;63981;51.052;13.754;2023-01-19T00:21:54;99235.72;;;-2.86;90.78
75063;BME280;63981;51.052;13.754;2023-01-19T00:24:20;99267.31;;;-2.79;90.78
75063;BME280;63981;51.052;13.754;2023-01-19T00:26:46;99220.81;;;-3.07;90.55
75063;BME280;63981;51.052;13.754;2023-01-19T00:29:12;99275.47;;;-2.63;90.19
75063;BME280;63981;51.052;13.754;2023-01-19T00:31:40;99270.31;;;-2.63;91.54
75063;BME280;63981;51.052;13.754;2023-01-19T00:34:06;99278.94;;;-2.64;90.96
75063;BME280;63981;51.052;13.754;2023-01-19T00:36:33;99286.56;;;-2.60;90.23
75063;BME280;63981;51.052;13.754;2023-01-19T00:38:59;99285.31;;;-2.78;90.50
75063;BME280;63981;51.052;13.754;2023-01-19T00:41:25;99290.38;;;-2.73;90.62
75063;BME280;63981;51.052;13.754;2023-01-19T00:44:10;99291.69;;;-2.58;90.26
75063;BME280;63981;51.052;13.754;2023-01-19T00:46:36;99298.19;;;-2.45;90.03
75063;BME280;63981;51.052;13.754;2023-01-19T00:49:02;99300.81;;;-2.48;89.38
75063;BME280;63981;51.052;13.754;2023-01-19T00:51:28;99302.38;;;-2.72;89.97
75063;BME280;63981;51.052;13.754;2023-01-19T00:53:53;99304.16;;;-2.76;89.58
75063;BME280;63981;51.052;13.754;2023-01-19T00:56:19;99306.63;;;-2.40;89.13
75063;BME280;63981;51.052;13.754;2023-01-19T00:58:45;99302.09;;;-2.32;87.87
75063;BME280;63981;51.052;13.754;2023-01-19T01:01:10;99313.19;;;-2.59;88.79
75063;BME280;63981;51.052;13.754;2023-01-19T01:03:36;99309.50;;;-2.51;89.03
75063;BME280;63981;51.052;13.754;2023-01-19T01:06:02;99306.63;;;-2.40;88.51
75063;BME280;63981;51.052;13.754;2023-01-19T01:08:29;99308.22;;;-2.36;87.69
75063;BME280;63981;51.052;13.754;2023-01-19T01:10:55;99305.91;;;-2.45;86.75
75063;BME280;63981;51.052;13.754;2023-01-19T01:13:21;99211.78;;;-2.91;86.72
75063;BME280;63981;51.052;13.754;2023-01-19T01:15:53;99302.59;;;-2.50;86.35
75063;BME280;63981;51.052;13.754;2023-01-19T01:18:20;99317.81;;;-2.71;87.72
75063;BME280;63981;51.052;13.754;2023-01-19T01:20:46;99291.28;;;-3.08;87.97
75063;BME280;63981;51.052;13.754;2023-01-19T01:23:12;99258.09;;;-3.54;88.23
75063;BME280;63981;51.052;13.754;2023-01-19T01:25:38;99320.28;;;-2.68;87.84
75063;BME280;63981;51.052;13.754;2023-01-19T01:28:05;99324.22;;;-2.87;88.18
75063;BME280;63981;51.052;13.754;2023-01-19T01:30:34;99333.13;;;-2.97;88.53
75063;BME280;63981;51.052;13.754;2023-01-19T01:33:04;99325.41;;;-2.99;88.60
75063;BME280;63981;51.052;13.754;2023-01-19T01:35:30;99330.84;;;-3.09;88.97
75063;BME280;63981;51.052;13.754;2023-01-19T01:37:59;99329.13;;;-3.09;88.89
75063;BME280;63981;51.052;13.754;2023-01-19T01:40:25;99312.06;;;-3.14;88.79
75063;BME280;63981;51.052;13.754;2023-01-19T01:42:51;99323.41;;;-3.21;88.83
75063;BME280;63981;51.052;13.754;2023-01-19T01:45:28;99328.03;;;-3.34;89.14
75063;BME280;63981;51.052;13.754;2023-01-19T01:47:57;99332.06;;;-3.24;88.67
75063;BME280;63981;51.052;13.754;2023-01-19T01:50:28;99331.72;;;-3.10;89.05
75063;BME280;63981;51.052;13.754;2023-01-19T01:53:10;99325.94;;;-3.20;88.90
75063;BME280;63981;51.052;13.754;2023-01-19T01:55:40;99336.09;;;-3.14;89.25
75063;BME280;63981;51.052;13.754;2023-01-19T01:58:08;99340.09;;;-3.36;89.50
75063;BME280;63981;51.052;13.754;2023-01-19T02:00:35;99348.44;;;-3.25;89.39
75063;BME280;63981;51.052;13.754;2023-01-19T02:03:24;99276.28;;;-3.61;89.38
75063;BME280;63981;51.052;13.754;2023-01-19T02:05:55;99348.25;;;-3.19;89.17
75063;BME280;63981;51.052;13.754;2023-01-19T02:08:31;99344.84;;;-3.19;89.44
75063;BME280;63981;51.052;13.754;2023-01-19T02:11:17;99346.69;;;-3.24;89.15
75063;BME280;63981;51.052;13.754;2023-01-19T02:14:04;99348.22;;;-3.17;89.10
75063;BME280;63981;51.052;13.754;2023-01-19T02:16:30;99275.06;;;-3.81;89.96
75063;BME280;63981;51.052;13.754;2023-01-19T02:18:56;99348.81;;;-3.42;89.70
75063;BME280;63981;51.052;13.754;2023-01-19T02:21:53;99339.59;;;-3.50;89.20
75063;BME280;63981;51.052;13.754;2023-01-19T02:24:21;99348.13;;;-3.48;89.61
75063;BME280;63981;51.052;13.754;2023-01-19T02:26:48;99293.31;;;-3.91;89.81
75063;BME280;63981;51.052;13.754;2023-01-19T02:29:17;99350.81;;;-3.54;89.54
75063;BME280;63981;51.052;13.754;2023-01-19T02:31:44;99341.13;;;-3.80;89.32
75063;BME280;63981;51.052;13.754;2023-01-19T02:34:12;99365.16;;;-3.81;89.79
75063;BME280;63981;51.052;13.754;2023-01-19T02:36:47;99369.59;;;-3.87;89.93
75063;BME280;63981;51.052;13.754;2023-01-19T02:39:14;99296.69;;;-4.27;89.88
75063;BME280;63981;51.052;13.754;2023-01-19T02:41:47;99370.47;;;-3.88;89.55
75063;BME280;63981;51.052;13.754;2023-01-19T02:44:16;99364.25;;;-3.77;90.06
75063;BME280;63981;51.052;13.754;2023-01-19T02:46:43;99350.56;;;-3.81;90.28
75063;BME280;63981;51.052;13.754;2023-01-19T02:49:08;99369.69;;;-3.93;89.80
75063;BME280;63981;51.052;13.754;2023-01-19T02:51:34;99367.31;;;-4.00;90.37
75063;BME280;63981;51.052;13.754;2023-01-19T02:56:52;99377.25;;;-4.25;90.20
75063;BME280;63981;51.052;13.754;2023-01-19T03:04:27;99377.78;;;-4.09;90.02
75063;BME280;63981;51.052;13.754;2023-01-19T03:09:33;99375.34;;;-3.75;90.30
75063;BME280;63981;51.052;13.754;2023-01-19T03:12:26;99381.13;;;-3.64;89.62
75063;BME280;63981;51.052;13.754;2023-01-19T03:14:59;99246.13;;;-4.30;89.16
75063;BME280;63981;51.052;13.754;2023-01-19T03:17:28;99376.78;;;-3.27;87.77
75063;BME280;63981;51.052;13.754;2023-01-19T03:19:56;99386.41;;;-3.33;87.88
75063;BME280;63981;51.052;13.754;2023-01-19T03:22:27;99346.47;;;-3.51;87.18
75063;BME280;63981;51.052;13.754;2023-01-19T03:24:55;99392.91;;;-3.18;85.92
75063;BME280;63981;51.052;13.754;2023-01-19T03:27:32;99402.53;;;-3.25;86.13
75063;BME280;63981;51.052;13.754;2023-01-19T03:30:09;99374.66;;;-3.45;85.58
75063;BME280;63981;51.052;13.754;2023-01-19T03:32:43;99413.09;;;-3.36;85.72
75063;BME280;63981;51.052;13.754;2023-01-19T03:35:12;99377.94;;;-3.75;87.37
75063;BME280;63981;51.052;13.754;2023-01-19T03:37:42;99412.16;;;-3.72;88.15
75063;BME280;63981;51.052;13.754;2023-01-19T03:40:09;99417.44;;;-3.78;88.86
75063;BME280;63981;51.052;13.754;2023-01-19T03:42:36;99408.91;;;-3.80;88.93
75063;BME280;63981;51.052;13.754;2023-01-19T03:45:04;99385.06;;;-3.88;88.83
75063;BME280;63981;51.052;13.754;2023-01-19T03:47:30;99408.56;;;-3.63;88.77
75063;BME280;63981;51.052;13.754;2023-01-19T03:49:57;99403.25;;;-3.57;88.54
75063;BME280;63981;51.052;13.754;2023-01-19T03:52:27;99410.69;;;-3.83;88.36
75063;BME280;63981;51.052;13.754;2023-01-19T03:54:54;99412.34;;;-3.81;89.19
75063;BME280;63981;51.052;13.754;2023-01-19T03:57:19;99412.78;;;-4.01;89.25
75063;BME280;63981;51.052;13.754;2023-01-19T03:59:46;99358.44;;;-4.27;88.92
75063;BME280;63981;51.052;13.754;2023-01-19T04:02:12;99403.78;;;-3.81;89.49
75063;BME280;63981;51.052;13.754;2023-01-19T04:04:38;99354.06;;;-4.24;89.17
75063;BME280;63981;51.052;13.754;2023-01-19T04:07:04;99423.09;;;-4.02;88.81
75063;BME280;63981;51.052;13.754;2023-01-19T04:09:30;99428.88;;;-3.91;89.17
75063;BME280;63981;51.052;13.754;2023-01-19T04:11:55;99429.94;;;-4.01;89.99
75063;BME280;63981;51.052;13.754;2023-01-19T04:14:21;99385.91;;;-4.29;89.86
75063;BME280;63981;51.052;13.754;2023-01-19T04:16:47;99433.31;;;-3.98;90.15
75063;BME280;63981;51.052;13.754;2023-01-19T04:19:13;99428.22;;;-4.01;90.65
75063;BME280;63981;51.052;13.754;2023-01-19T04:21:39;99413.72;;;-4.06;90.03
75063;BME280;63981;51.052;13.754;2023-01-19T04:24:05;99417.81;;;-3.96;89.49
75063;BME280;63981;51.052;13.754;2023-01-19T04:26:31;99419.06;;;-4.14;90.07
75063;BME280;63981;51.052;13.754;2023-01-19T04:28:56;99413.38;;;-4.31;89.60
75063;BME280;63981;51.052;13.754;2023-01-19T04:31:22;99412.63;;;-4.36;90.01
75063;BME280;63981;51.052;13.754;2023-01-19T04:33:48;99415.53;;;-4.56;90.39
75063;BME280;63981;51.052;13.754;2023-01-19T04:36:14;99421.69;;;-4.63;89.32
75063;BME280;63981;51.052;13.754;2023-01-19T04:38:39;99424.13;;;-4.57;89.58
75063;BME280;63981;51.052;13.754;2023-01-19T04:41:05;99422.63;;;-4.69;90.68
75063;BME280;63981;51.052;13.754;2023-01-19T04:43:31;99427.88;;;-4.75;89.97
75063;BME280;63981;51.052;13.754;2023-01-19T04:45:57;99417.09;;;-4.48;90.72
75063;BME280;63981;51.052;13.754;2023-01-19T04:48:23;99387.34;;;-4.61;90.71
75063;BME280;63981;51.052;13.754;2023-01-19T04:50:50;99422.19;;;-4.45;90.56
75063;BME280;63981;51.052;13.754;2023-01-19T04:53:16;99425.97;;;-4.64;90.57
75063;BME280;63981;51.052;13.754;2023-01-19T04:55:43;99430.72;;;-4.41;91.47
75063;BME280;63981;51.052;13.754;2023-01-19T04:58:08;99427.09;;;-4.32;90.50
75063;BME280;63981;51.052;13.754;2023-01-19T05:00:35;99423.75;;;-3.93;90.61
75063;BME280;63981;51.052;13.754;2023-01-19T05:03:00;99402.88;;;-4.21;89.52
75063;BME280;63981;51.052;13.754;2023-01-19T05:05:26;99421.25;;;-4.39;89.31
75063;BME280;63981;51.052;13.754;2023-01-19T05:07:52;99426.72;;;-4.56;89.87
75063;BME280;63981;51.052;13.754;2023-01-19T05:10:18;99422.66;;;-4.70;90.07
75063;BME280;63981;51.052;13.754;2023-01-19T05:12:43;99423.41;;;-4.64;90.83
75063;BME280;63981;51.052;13.754;2023-01-19T05:15:09;99354.13;;;-5.19;90.39
75063;BME280;63981;51.052;13.754;2023-01-19T05:17:35;99370.75;;;-4.91;90.87
75063;BME280;63981;51.052;13.754;2023-01-19T05:20:02;99387.38;;;-4.62;90.41
75063;BME280;63981;51.052;13.754;2023-01-19T05:22:28;99420.53;;;-4.47;90.96
75063;BME280;63981;51.052;13.754;2023-01-19T05:24:54;99406.44;;;-4.74;90.29
75063;BME280;63981;51.052;13.754;2023-01-19T05:27:20;99412.09;;;-4.54;91.19
75063;BME280;63981;51.052;13.754;2023-01-19T05:29:45;99417.84;;;-4.41;90.69
75063;BME280;63981;51.052;13.754;2023-01-19T05:32:11;99417.44;;;-4.66;90.29
75063;BME280;63981;51.052;13.754;2023-01-19T05:34:38;99422.38;;;-4.54;90.08
75063;BME280;63981;51.052;13.754;2023-01-19T05:37:04;99410.59;;;-4.65;90.05
75063;BME280;63981;51.052;13.754;2023-01-19T05:39:30;99329.31;;;-5.20;90.39
75063;BME280;63981;51.052;13.754;2023-01-19T05:41:55;99407.53;;;-4.87;90.74
75063;BME280;63981;51.052;13.754;2023-01-19T05:44:21;99406.72;;;-4.89;91.05
75063;BME280;63981;51.052;13.754;2023-01-19T05:46:47;99411.06;;;-4.45;90.01
75063;BME280;63981;51.052;13.754;2023-01-19T05:49:13;99407.38;;;-4.32;90.49
75063;BME280;63981;51.052;13.754;2023-01-19T05:51:38;99412.06;;;-4.52;90.73
75063;BME280;63981;51.052;13.754;2023-01-19T05:54:12;99405.19;;;-4.52;90.29
75063;BME280;63981;51.052;13.754;2023-01-19T05:56:39;99409.94;;;-4.77;89.61
75063;BME280;63981;51.052;13.754;2023-01-19T05:59:04;99412.63;;;-4.84;90.04
75063;BME280;63981;51.052;13.754;2023-01-19T06:01:30;99415.38;;;-4.96;90.96
75063;BME280;63981;51.052;13.754;2023-01-19T06:03:57;99424.63;;;-4.85;90.03
75063;BME280;63981;51.052;13.754;2023-01-19T06:06:23;99426.44;;;-4.90;89.63
75063;BME280;63981;51.052;13.754;2023-01-19T06:08:50;99429.72;;;-4.83;89.51
75063;BME280;63981;51.052;13.754;2023-01-19T06:11:16;99429.75;;;-4.85;90.75
75063;BME280;63981;51.052;13.754;2023-01-19T06:13:41;99426.69;;;-4.57;89.51
75063;BME280;63981;51.052;13.754;2023-01-19T06:16:08;99366.56;;;-4.96;89.78
75063;BME280;63981;51.052;13.754;2023-01-19T06:18:35;99430.13;;;-4.57;89.19
75063;BME280;63981;51.052;13.754;2023-01-19T06:21:05;99435.38;;;-4.63;90.45
75063;BME280;63981;51.052;13.754;2023-01-19T06:23:33;99441.41;;;-4.64;90.61
75063;BME280;63981;51.052;13.754;2023-01-19T06:25:59;99444.69;;;-4.56;89.49
75063;BME280;63981;51.052;13.754;2023-01-19T06:28:25;99452.22;;;-4.47;90.02
75063;BME280;63981;51.052;13.754;2023-01-19T06:30:52;99458.84;;;-4.33;89.09
75063;BME280;63981;51.052;13.754;2023-01-19T06:33:19;99455.06;;;-4.62;88.83
75063;BME280;63981;51.052;13.754;2023-01-19T06:35:46;99461.41;;;-4.83;88.58
75063;BME280;63981;51.052;13.754;2023-01-19T06:38:13;99462.34;;;-4.87;89.62
75063;BME280;63981;51.052;13.754;2023-01-19T06:40:39;99462.13;;;-4.73;89.44
75063;BME280;63981;51.052;13.754;2023-01-19T06:43:06;99456.69;;;-4.56;87.54
75063;BME280;63981;51.052;13.754;2023-01-19T06:45:32;99492.13;;;-4.73;87.91
75063;BME280;63981;51.052;13.754;2023-01-19T06:47:59;99412.38;;;-5.20;88.32
75063;BME280;63981;51.052;13.754;2023-01-19T06:50:25;99482.09;;;-4.89;88.63
75063;BME280;63981;51.052;13.754;2023-01-19T06:52:51;99483.22;;;-5.08;89.04
75063;BME280;63981;51.052;13.754;2023-01-19T06:55:17;99463.66;;;-5.15;89.21
75063;BME280;63981;51.052;13.754;2023-01-19T06:57:43;99490.00;;;-5.02;89.03
75063;BME280;63981;51.052;13.754;2023-01-19T07:00:11;99479.81;;;-5.09;88.21
75063;BME280;63981;51.052;13.754;2023-01-19T07:02:40;99489.06;;;-4.97;88.13
75063;BME280;63981;51.052;13.754;2023-01-19T07:05:08;99483.03;;;-4.96;88.75
75063;BME280;63981;51.052;13.754;2023-01-19T07:07:34;99494.94;;;-4.89;88.93
75063;BME280;63981;51.052;13.754;2023-01-19T07:10:00;99501.81;;;-4.89;88.26
75063;BME280;63981;51.052;13.754;2023-01-19T07:12:26;99490.53;;;-4.81;88.08
75063;BME280;63981;51.052;13.754;2023-01-19T07:14:51;99495.03;;;-4.41;86.28
75063;BME280;63981;51.052;13.754;2023-01-19T07:17:17;99498.09;;;-4.73;85.24
75063;BME280;63981;51.052;13.754;2023-01-19T07:19:45;99492.97;;;-4.73;87.18
75063;BME280;63981;51.052;13.754;2023-01-19T07:22:11;99500.78;;;-4.79;87.06
75063;BME280;63981;51.052;13.754;2023-01-19T07:24:36;99501.47;;;-4.68;87.07
75063;BME280;63981;51.052;13.754;2023-01-19T07:27:03;99505.81;;;-4.73;87.53
75063;BME280;63981;51.052;13.754;2023-01-19T07:29:29;99494.44;;;-4.58;85.61
75063;BME280;63981;51.052;13.754;2023-01-19T07:31:55;99502.31;;;-4.67;87.63
75063;BME280;63981;51.052;13.754;2023-01-19T07:34:21;99487.06;;;-4.78;87.14
75063;BME280;63981;51.052;13.754;2023-01-19T07:36:47;99477.59;;;-4.76;86.75
75063;BME280;63981;51.052;13.754;2023-01-19T07:39:13;99504.53;;;-4.48;85.37
75063;BME280;63981;51.052;13.754;2023-01-19T07:41:38;99504.09;;;-4.22;85.84
75063;BME280;63981;51.052;13.754;2023-01-19T07:44:05;99516.22;;;-4.28;84.81
75063;BME280;63981;51.052;13.754;2023-01-19T07:46:33;99494.75;;;-4.26;84.15
75063;BME280;63981;51.052;13.754;2023-01-19T07:48:58;99480.13;;;-4.24;83.44
75063;BME280;63981;51.052;13.754;2023-01-19T07:51:24;99516.84;;;-4.14;84.56
75063;BME280;63981;51.052;13.754;2023-01-19T07:53:50;99514.56;;;-4.32;84.54
75063;BME280;63981;51.052;13.754;2023-01-19T07:56:16;99511.84;;;-4.23;84.46
75063;BME280;63981;51.052;13.754;2023-01-19T07:58:42;99454.13;;;-4.55;84.52
75063;BME280;63981;51.052;13.754;2023-01-19T08:01:10;99514.34;;;-4.20;83.66
75063;BME280;63981;51.052;13.754;2023-01-19T08:03:36;99492.00;;;-4.18;83.62
75063;BME280;63981;51.052;13.754;2023-01-19T08:06:02;99524.56;;;-4.14;83.47
75063;BME280;63981;51.052;13.754;2023-01-19T08:11:01;99520.59;;;-3.86;84.51
75063;BME280;63981;51.052;13.754;2023-01-19T08:13:46;99530.78;;;-3.81;83.46
75063;BME280;63981;51.052;13.754;2023-01-19T08:16:12;99510.31;;;-3.87;83.39
75063;BME280;63981;51.052;13.754;2023-01-19T08:18:37;99526.16;;;-3.64;82.39
75063;BME280;63981;51.052;13.754;2023-01-19T08:21:03;99536.38;;;-3.59;81.63
75063;BME280;63981;51.052;13.754;2023-01-19T08:23:29;99514.16;;;-3.65;82.45
75063;BME280;63981;51.052;13.754;2023-01-19T08:25:55;99536.47;;;-3.22;82.00
75063;BME280;63981;51.052;13.754;2023-01-19T08:28:21;99533.25;;;-3.33;81.95
75063;BME280;63981;51.052;13.754;2023-01-19T08:30:47;99530.44;;;-3.21;82.04
75063;BME280;63981;51.052;13.754;2023-01-19T08:33:19;99518.38;;;-3.20;82.64
75063;BME280;63981;51.052;13.754;2023-01-19T08:35:50;99530.69;;;-2.94;81.28
75063;BME280;63981;51.052;13.754;2023-01-19T08:38:17;99533.75;;;-3.16;81.71
75063;BME280;63981;51.052;13.754;2023-01-19T08:40:43;99483.56;;;-3.38;82.16
75063;BME280;63981;51.052;13.754;2023-01-19T08:43:14;99535.34;;;-2.72;80.91
75063;BME280;63981;51.052;13.754;2023-01-19T08:45:44;99540.16;;;-2.58;81.14
75063;BME280;63981;51.052;13.754;2023-01-19T08:48:15;99536.69;;;-2.21;80.36
75063;BME280;63981;51.052;13.754;2023-01-19T08:50:41;99534.75;;;-2.13;78.99
75063;BME280;63981;51.052;13.754;2023-01-19T08:53:08;99541.09;;;-2.26;78.82
75063;BME280;63981;51.052;13.754;2023-01-19T08:55:35;99538.16;;;-2.13;77.52
75063;BME280;63981;51.052;13.754;2023-01-19T08:58:01;99535.25;;;-2.00;77.67
75063;BME280;63981;51.052;13.754;2023-01-19T09:00:29;99488.50;;;-2.21;77.82
75063;BME280;63981;51.052;13.754;2023-01-19T09:02:59;99531.00;;;-1.10;76.17
75063;BME280;63981;51.052;13.754;2023-01-19T09:05:29;99490.22;;;-0.74;76.15
75063;BME280;63981;51.052;13.754;2023-01-19T09:08:00;99518.88;;;-0.53;72.72
75063;BME280;63981;51.052;13.754;2023-01-19T09:10:28;99526.72;;;-0.83;73.75
75063;BME280;63981;51.052;13.754;2023-01-19T09:12:56;99526.59;;;-1.36;74.81
75063;BME280;63981;51.052;13.754;2023-01-19T09:15:22;99525.81;;;-0.82;73.89
75063;BME280;63981;51.052;13.754;2023-01-19T09:17:48;99532.84;;;-0.85;73.57
75063;BME280;63981;51.052;13.754;2023-01-19T09:20:16;99520.78;;;0.18;73.22
75063;BME280;63981;51.052;13.754;2023-01-19T09:22:41;99358.00;;;0.06;71.21
75063;BME280;63981;51.052;13.754;2023-01-19T09:25:08;99521.97;;;1.46;65.83
75063;BME280;63981;51.052;13.754;2023-01-19T09:27:34;99522.34;;;0.47;68.17
75063;BME280;63981;51.052;13.754;2023-01-19T09:30:00;99525.72;;;0.72;68.90
75063;BME280;63981;51.052;13.754;2023-01-19T09:32:26;99523.78;;;1.23;66.73
75063;BME280;63981;51.052;13.754;2023-01-19T09:34:51;99528.75;;;0.60;68.30
75063;BME280;63981;51.052;13.754;2023-01-19T09:37:19;99519.13;;;1.09;69.56
75063;BME280;63981;51.052;13.754;2023-01-19T09:39:45;99515.66;;;1.74;66.39
75063;BME280;63981;51.052;13.754;2023-01-19T09:42:22;99511.94;;;1.80;64.92
75063;BME280;63981;51.052;13.754;2023-01-19T09:44:52;99511.28;;;1.10;65.65
75063;BME280;63981;51.052;13.754;2023-01-19T09:47:24;99524.91;;;-0.02;69.07
75063;BME280;63981;51.052;13.754;2023-01-19T09:49:58;99517.53;;;-0.12;69.42
75063;BME280;63981;51.052;13.754;2023-01-19T09:52:26;99508.19;;;-0.18;70.37
75063;BME280;63981;51.052;13.754;2023-01-19T09:54:56;99508.72;;;0.87;69.40
75063;BME280;63981;51.052;13.754;2023-01-19T09:57:23;99522.19;;;0.97;67.60
75063;BME280;63981;51.052;13.754;2023-01-19T09:59:50;99506.75;;;1.37;68.20
75063;BME280;63981;51.052;13.754;2023-01-19T10:04:57;99506.72;;;1.80;65.68
75063;BME280;63981;51.052;13.754;2023-01-19T10:10:08;99499.16;;;2.74;63.19
75063;BME280;63981;51.052;13.754;2023-01-19T10:18:00;99490.78;;;3.22;61.06
75063;BME280;63981;51.052;13.754;2023-01-19T10:20:32;99488.81;;;3.27;60.64
75063;BME280;63981;51.052;13.754;2023-01-19T10:23:04;99476.13;;;5.35;57.08
75063;BME280;63981;51.052;13.754;2023-01-19T10:25:41;99464.09;;;6.78;52.67
75063;BME280;63981;51.052;13.754;2023-01-19T10:28:07;99443.66;;;6.97;50.98
75063;BME280;63981;51.052;13.754;2023-01-19T10:30:35;99473.66;;;5.32;55.11
75063;BME280;63981;51.052;13.754;2023-01-19T10:33:01;99476.94;;;4.41;56.90
75063;BME280;63981;51.052;13.754;2023-01-19T10:35:28;99477.34;;;4.00;58.84
75063;BME280;63981;51.052;13.754;2023-01-19T10:37:57;99477.03;;;4.06;58.60
75063;BME280;63981;51.052;13.754;2023-01-19T10:40:52;99469.81;;;4.11;58.38
75063;BME280;63981;51.052;13.754;2023-01-19T10:45:58;99462.66;;;4.64;56.00
75063;BME280;63981;51.052;13.754;2023-01-19T10:48:24;99462.31;;;5.17;56.34
75063;BME280;63981;51.052;13.754;2023-01-19T10:51:01;99466.75;;;6.35;52.79
75063;BME280;63981;51.052;13.754;2023-01-19T10:53:27;99448.00;;;8.03;47.95
75063;BME280;63981;51.052;13.754;2023-01-19T10:56:35;99442.25;;;8.49;47.30
75063;BME280;63981;51.052;13.754;2023-01-19T10:59:04;99443.69;;;9.26;47.19
75063;BME280;63981;51.052;13.754;2023-01-19T11:01:31;99445.16;;;8.94;46.23
75063;BME280;63981;51.052;13.754;2023-01-19T11:04:19;99428.41;;;11.76;40.27
75063;BME280;63981;51.052;13.754;2023-01-19T11:06:45;99440.66;;;10.70;39.14
75063;BME280;63981;51.052;13.754;2023-01-19T11:09:18;99390.63;;;10.90;38.69
75063;BME280;63981;51.052;13.754;2023-01-19T11:11:49;99426.41;;;13.21;36.10
75063;BME280;63981;51.052;13.754;2023-01-19T11:14:21;99428.41;;;11.87;39.01
75063;BME280;63981;51.052;13.754;2023-01-19T11:16:52;99424.91;;;12.38;37.88
75063;BME280;63981;51.052;13.754;2023-01-19T11:19:24;99426.28;;;13.51;36.44
75063;BME280;63981;51.052;13.754;2023-01-19T11:21:51;99419.13;;;15.02;35.10
75063;BME280;63981;51.052;13.754;2023-01-19T11:24:17;99379.81;;;16.29;29.55
75063;BME280;63981;51.052;13.754;2023-01-19T11:26:47;99405.81;;;16.43;31.17
75063;BME280;63981;51.052;13.754;2023-01-19T11:29:24;99414.34;;;17.72;30.91
75063;BME280;63981;51.052;13.754;2023-01-19T11:31:51;99411.28;;;18.23;30.68
75063;BME280;63981;51.052;13.754;2023-01-19T11:34:33;99426.84;;;13.65;33.57
75063;BME280;63981;51.052;13.754;2023-01-19T11:37:03;99428.91;;;15.01;32.06
75063;BME280;63981;51.052;13.754;2023-01-19T11:39:31;99422.41;;;15.49;32.00
75063;BME280;63981;51.052;13.754;2023-01-19T11:42:11;99432.63;;;12.60;33.58
75063;BME280;63981;51.052;13.754;2023-01-19T11:44:43;99438.66;;;13.22;33.50
75063;BME280;63981;51.052;13.754;2023-01-19T11:47:15;99431.88;;;15.16;30.74
75063;BME280;63981;51.052;13.754;2023-01-19T11:49:48;99434.09;;;13.43;32.28
75063;BME280;63981;51.052;13.754;2023-01-19T11:52:27;99433.09;;;14.49;32.10
75063;BME280;63981;51.052;13.754;2023-01-19T11:55:00;99421.53;;;13.36;31.98
75063;BME280;63981;51.052;13.754;2023-01-19T11:57:28;99427.31;;;14.63;31.74
75063;BME280;63981;51.052;13.754;2023-01-19T11:59:53;99434.91;;;13.73;33.82
75063;BME280;63981;51.052;13.754;2023-01-19T12:02:25;99447.13;;;10.32;38.81
75063;BME280;63981;51.052;13.754;2023-01-19T12:04:58;99423.31;;;14.77;34.11
75063;BME280;63981;51.052;13.754;2023-01-19T12:07:30;99440.63;;;13.49;34.41
75063;BME280;63981;51.052;13.754;2023-01-19T12:10:06;99454.13;;;8.42;41.20
75063;BME280;63981;51.052;13.754;2023-01-19T12:12:40;99432.56;;;10.93;40.55
75063;BME280;63981;51.052;13.754;2023-01-19T12:17:44;99433.22;;;12.33;36.51
75063;BME280;63981;51.052;13.754;2023-01-19T12:23:21;99415.59;;;16.08;30.63
75063;BME280;63981;51.052;13.754;2023-01-19T12:26:24;99416.50;;;15.38;30.30
75063;BME280;63981;51.052;13.754;2023-01-19T12:28:49;99418.59;;;18.21;26.12
75063;BME280;63981;51.052;13.754;2023-01-19T12:31:20;99424.16;;;14.50;31.60
75063;BME280;63981;51.052;13.754;2023-01-19T12:33:46;99416.78;;;14.34;32.94
75063;BME280;63981;51.052;13.754;2023-01-19T12:38:53;99442.34;;;9.21;40.53
75063;BME280;63981;51.052;13.754;2023-01-19T12:41:22;99454.81;;;7.93;43.05
75063;BME280;63981;51.052;13.754;2023-01-19T12:46:34;99436.16;;;8.85;42.52
75063;BME280;63981;51.052;13.754;2023-01-19T12:51:36;99424.47;;;7.24;45.53
75063;BME280;63981;51.052;13.754;2023-01-19T12:54:06;99434.34;;;7.85;44.59
75063;BME280;63981;51.052;13.754;2023-01-19T12:56:35;99365.50;;;8.56;43.33
75063;BME280;63981;51.052;13.754;2023-01-19T12:59:02;99448.81;;;6.43;44.63
75063;BME280;63981;51.052;13.754;2023-01-19T13:01:28;99451.47;;;4.93;47.14
75063;BME280;63981;51.052;13.754;2023-01-19T13:04:04;99450.00;;;5.19;49.19
75063;BME280;63981;51.052;13.754;2023-01-19T13:09:30;99449.44;;;5.44;47.48
75063;BME280;63981;51.052;13.754;2023-01-19T13:12:19;99444.41;;;6.01;46.74
75063;BME280;63981;51.052;13.754;2023-01-19T13:14:45;99432.38;;;5.39;48.46
75063;BME280;63981;51.052;13.754;2023-01-19T13:19:53;99337.16;;;4.21;47.36
75063;BME280;63981;51.052;13.754;2023-01-19T13:25:25;99357.75;;;4.73;47.86
75063;BME280;63981;51.052;13.754;2023-01-19T13:27:52;99436.78;;;4.28;49.61
75063;BME280;63981;51.052;13.754;2023-01-19T13:30:20;99439.69;;;4.86;48.83
75063;BME280;63981;51.052;13.754;2023-01-19T13:32:53;99443.00;;;4.25;49.17
75063;BME280;63981;51.052;13.754;2023-01-19T13:35:21;99441.03;;;4.13;49.58
75063;BME280;63981;51.052;13.754;2023-01-19T13:37:47;99396.72;;;3.80;50.11
75063;BME280;63981;51.052;13.754;2023-01-19T13:40:36;99443.81;;;4.43;50.64
75063;BME280;63981;51.052;13.754;2023-01-19T13:43:14;99437.31;;;4.34;50.70
75063;BME280;63981;51.052;13.754;2023-01-19T13:45:46;99445.09;;;4.19;50.29
75063;BME280;63981;51.052;13.754;2023-01-19T13:48:16;99439.16;;;4.32;50.08
75063;BME280;63981;51.052;13.754;2023-01-19T13:50:55;99369.59;;;4.15;49.61